createdAt,value
2022-10-29T00:00:11.881Z,15.50
2022-10-29T00:01:11.890Z,15.48
2022-10-29T00:02:11.887Z,15.48
2022-10-29T00:03:11.872Z,15.48
2022-10-29T00:04:11.791Z,15.50
2022-10-29T00:05:11.787Z,15.48
2022-10-29T00:06:11.796Z,15.45
2022-10-29T00:07:11.757Z,15.45
2022-10-29T00:08:11.732Z,15.44
2022-10-29T00:09:11.742Z,15.48
2022-10-29T00:10:11.710Z,15.47
2022-10-29T00:11:11.707Z,15.45
2022-10-29T00:12:11.720Z,15.47
2022-10-29T00:13:11.697Z,15.50
2022-10-29T00:14:11.650Z,15.51
2022-10-29T00:15:11.652Z,15.47
2022-10-29T00:16:11.636Z,15.45
2022-10-29T00:17:11.652Z,15.47
2022-10-29T00:18:11.637Z,15.45
2022-10-29T00:19:11.595Z,15.43
2022-10-29T00:20:11.581Z,15.38
2022-10-29T00:21:11.571Z,15.35
2022-10-29T00:22:11.560Z,15.30
2022-10-29T00:23:11.546Z,15.29
2022-10-29T00:24:11.573Z,15.27
2022-10-29T00:25:11.514Z,15.26
2022-10-29T00:26:11.523Z,15.23
2022-10-29T00:27:11.502Z,15.17
2022-10-29T00:28:11.469Z,15.08
2022-10-29T00:29:11.469Z,15.04
2022-10-29T00:30:11.476Z,14.97
2022-10-29T00:31:11.447Z,14.92
2022-10-29T00:32:11.445Z,14.87
2022-10-29T00:33:11.449Z,14.87
2022-10-29T00:34:11.391Z,14.85
2022-10-29T00:35:11.404Z,14.89
2022-10-29T00:36:11.406Z,14.97
2022-10-29T00:37:11.368Z,15.01
2022-10-29T00:38:11.332Z,15.10
2022-10-29T00:39:11.337Z,15.17
2022-10-29T00:40:11.311Z,15.23
2022-10-29T00:41:11.316Z,15.27
2022-10-29T00:42:11.314Z,15.35
2022-10-29T00:43:11.288Z,15.43
2022-10-29T00:44:11.252Z,15.50
2022-10-29T00:45:11.260Z,15.54
2022-10-29T00:46:11.233Z,15.54
2022-10-29T00:47:11.237Z,15.56
2022-10-29T00:48:11.251Z,15.54
2022-10-29T00:49:11.206Z,15.54
2022-10-29T00:50:11.177Z,15.56
2022-10-29T00:51:11.177Z,15.60
2022-10-29T00:52:11.148Z,15.60
2022-10-29T00:53:11.156Z,15.60
2022-10-29T00:54:11.177Z,15.59
2022-10-29T00:55:11.124Z,15.65
2022-10-29T00:56:11.094Z,15.70
2022-10-29T00:57:11.103Z,15.73
2022-10-29T00:58:11.069Z,15.73
2022-10-29T00:59:11.069Z,15.73
2022-10-29T01:00:11.108Z,15.76
2022-10-29T01:01:11.099Z,15.76
2022-10-29T01:02:11.166Z,15.73
2022-10-29T01:03:11.087Z,15.72
2022-10-29T01:04:10.986Z,15.72
2022-10-29T01:05:10.995Z,15.70
2022-10-29T01:06:11.004Z,15.70
2022-10-29T01:07:10.984Z,15.68
2022-10-29T01:08:10.936Z,15.66
2022-10-29T01:09:10.945Z,15.65
2022-10-29T01:10:10.904Z,15.65
2022-10-29T01:11:10.903Z,15.65
2022-10-29T01:12:10.951Z,15.65
2022-10-29T01:13:10.962Z,15.69
2022-10-29T01:14:10.854Z,15.70
2022-10-29T01:15:10.858Z,15.70
2022-10-29T01:16:10.830Z,15.77
2022-10-29T01:17:10.827Z,15.78
2022-10-29T01:18:10.859Z,15.83
2022-10-29T01:19:10.907Z,15.85
2022-10-29T01:20:10.770Z,15.85
2022-10-29T01:21:10.782Z,15.84
2022-10-29T01:22:10.760Z,15.84
2022-10-29T01:23:10.752Z,15.87
2022-10-29T01:24:10.762Z,15.84
2022-10-29T01:25:10.746Z,15.85
2022-10-29T01:26:10.699Z,15.90
2022-10-29T01:27:10.709Z,15.93
2022-10-29T01:28:10.669Z,15.93
2022-10-29T01:29:10.681Z,15.95
2022-10-29T01:30:10.690Z,15.95
2022-10-29T01:31:10.644Z,15.95
2022-10-29T01:32:10.657Z,15.93
2022-10-29T01:33:10.630Z,15.91
2022-10-29T01:34:10.634Z,15.91
2022-10-29T01:35:10.604Z,15.98
2022-10-29T01:36:10.612Z,15.99
2022-10-29T01:37:10.639Z,16.02
2022-10-29T01:38:10.543Z,16.06
2022-10-29T01:39:10.561Z,16.08
2022-10-29T01:40:10.509Z,16.06
2022-10-29T01:41:10.519Z,16.06
2022-10-29T01:42:10.527Z,16.05
2022-10-29T01:43:10.497Z,16.05
2022-10-29T01:44:10.451Z,16.06
2022-10-29T01:45:10.457Z,16.08
2022-10-29T01:46:10.427Z,16.06
2022-10-29T01:47:10.424Z,16.05
2022-10-29T01:48:10.436Z,16.03
2022-10-29T01:49:10.407Z,16.00
2022-10-29T01:50:10.402Z,16.00
2022-10-29T01:51:10.375Z,16.03
2022-10-29T01:52:10.354Z,16.00
2022-10-29T01:53:10.347Z,15.96
2022-10-29T01:54:10.376Z,15.91
2022-10-29T01:55:10.341Z,15.91
2022-10-29T01:56:10.298Z,15.93
2022-10-29T01:57:10.303Z,15.99
2022-10-29T01:58:10.324Z,15.99
2022-10-29T01:59:18.196Z,16.00
2022-10-29T02:00:10.290Z,16.03
2022-10-29T02:01:10.426Z,16.05
2022-10-29T02:02:10.214Z,16.08
2022-10-29T02:03:10.221Z,16.05
2022-10-29T02:04:10.191Z,15.99
2022-10-29T02:05:10.200Z,16.02
2022-10-29T02:06:10.191Z,15.98
2022-10-29T02:07:10.162Z,15.98
2022-10-29T02:08:10.156Z,15.96
2022-10-29T02:09:10.141Z,15.93
2022-10-29T02:10:10.108Z,15.88
2022-10-29T02:11:10.153Z,15.84
2022-10-29T02:12:10.087Z,15.83
2022-10-29T02:13:10.140Z,15.83
2022-10-29T02:14:10.064Z,15.81
2022-10-29T02:15:10.062Z,15.83
2022-10-29T02:16:10.039Z,15.91
2022-10-29T02:17:10.066Z,15.95
2022-10-29T02:18:10.000Z,16.00
2022-10-29T02:19:10.005Z,16.00
2022-10-29T02:20:09.985Z,15.95
2022-10-29T02:21:09.976Z,15.91
2022-10-29T02:22:09.991Z,15.95
2022-10-29T02:23:09.973Z,15.93
2022-10-29T02:24:09.934Z,15.95
2022-10-29T02:25:09.987Z,15.87
2022-10-29T02:26:09.903Z,15.87
2022-10-29T02:27:09.894Z,15.83
2022-10-29T02:28:09.987Z,15.78
2022-10-29T02:29:09.876Z,15.78
2022-10-29T02:30:09.844Z,15.83
2022-10-29T02:31:09.869Z,15.88
2022-10-29T02:32:09.817Z,15.93
2022-10-29T02:33:09.857Z,15.95
2022-10-29T02:34:09.788Z,15.93
2022-10-29T02:35:09.810Z,15.88
2022-10-29T02:36:09.765Z,15.87
2022-10-29T02:37:09.782Z,15.83
2022-10-29T02:38:09.743Z,15.83
2022-10-29T02:39:09.769Z,15.80
2022-10-29T02:40:09.713Z,15.77
2022-10-29T02:41:09.715Z,15.69
2022-10-29T02:42:09.681Z,15.62
2022-10-29T02:43:09.781Z,15.54
2022-10-29T02:44:09.685Z,15.43
2022-10-29T02:45:09.671Z,15.36
2022-10-29T02:46:09.641Z,15.40
2022-10-29T02:47:09.646Z,15.45
2022-10-29T02:48:09.627Z,15.47
2022-10-29T02:49:09.594Z,15.45
2022-10-29T02:50:09.660Z,15.47
2022-10-29T02:51:09.559Z,15.41
2022-10-29T02:52:09.564Z,15.40
2022-10-29T02:53:09.568Z,15.40
2022-10-29T02:54:09.537Z,15.36
2022-10-29T02:55:09.549Z,15.33
2022-10-29T02:56:09.518Z,15.27
2022-10-29T02:57:09.481Z,15.27
2022-10-29T02:58:09.537Z,15.26
2022-10-29T02:59:11.815Z,15.19
2022-10-29T03:00:09.456Z,15.12
2022-10-29T03:01:09.454Z,15.05
2022-10-29T03:02:09.623Z,14.99
2022-10-29T03:03:09.510Z,14.93
2022-10-29T03:04:09.441Z,14.87
2022-10-29T03:05:09.387Z,14.79
2022-10-29T03:06:09.436Z,14.73
2022-10-29T03:07:09.377Z,14.66
2022-10-29T03:08:09.376Z,14.59
2022-10-29T03:09:09.377Z,14.51
2022-10-29T03:10:09.357Z,14.46
2022-10-29T03:11:09.304Z,14.40
2022-10-29T03:12:09.359Z,14.33
2022-10-29T03:13:09.270Z,14.28
2022-10-29T03:14:09.274Z,14.22
2022-10-29T03:15:09.252Z,14.19
2022-10-29T03:16:09.244Z,14.16
2022-10-29T03:17:09.267Z,14.11
2022-10-29T03:18:09.222Z,14.04
2022-10-29T03:19:09.201Z,14.01
2022-10-29T03:20:09.196Z,13.98
2022-10-29T03:21:09.197Z,13.96
2022-10-29T03:22:09.189Z,13.91
2022-10-29T03:23:09.164Z,13.85
2022-10-29T03:24:09.151Z,13.83
2022-10-29T03:25:09.117Z,13.80
2022-10-29T03:26:09.105Z,13.79
2022-10-29T03:27:09.087Z,13.76
2022-10-29T03:28:09.120Z,13.76
2022-10-29T03:29:09.068Z,13.73
2022-10-29T03:30:09.061Z,13.73
2022-10-29T03:31:09.027Z,13.72
2022-10-29T03:32:09.026Z,13.72
2022-10-29T03:33:09.000Z,13.68
2022-10-29T03:34:09.027Z,13.68
2022-10-29T03:35:08.976Z,13.68
2022-10-29T03:36:09.091Z,13.71
2022-10-29T03:37:08.972Z,13.68
2022-10-29T03:38:08.969Z,13.71
2022-10-29T03:39:08.968Z,13.72
2022-10-29T03:40:08.929Z,13.71
2022-10-29T03:41:08.893Z,13.72
2022-10-29T03:42:08.896Z,13.71
2022-10-29T03:43:08.873Z,13.73
2022-10-29T03:44:08.881Z,13.76
2022-10-29T03:45:08.867Z,13.80
2022-10-29T03:46:08.844Z,13.82
2022-10-29T03:47:08.818Z,13.83
2022-10-29T03:48:08.814Z,13.88
2022-10-29T03:49:08.796Z,13.93
2022-10-29T03:50:08.833Z,13.94
2022-10-29T03:51:08.765Z,13.98
2022-10-29T03:52:08.762Z,14.00
2022-10-29T03:53:08.734Z,14.00
2022-10-29T03:54:08.751Z,14.03
2022-10-29T03:55:08.720Z,14.04
2022-10-29T03:56:08.740Z,14.05
2022-10-29T03:57:08.686Z,14.08
2022-10-29T03:58:08.680Z,14.08
2022-10-29T04:00:08.668Z,14.08
2022-10-29T04:01:08.676Z,14.05
2022-10-29T04:02:08.803Z,14.04
2022-10-29T04:03:08.665Z,14.00
2022-10-29T04:04:08.625Z,13.96
2022-10-29T04:05:08.582Z,13.93
2022-10-29T04:06:08.582Z,13.85
2022-10-29T04:07:08.575Z,13.79
2022-10-29T04:08:08.569Z,13.73
2022-10-29T04:09:08.523Z,13.68
2022-10-29T04:10:08.523Z,13.61
2022-10-29T04:11:08.519Z,13.60
2022-10-29T04:12:08.535Z,13.64
2022-10-29T04:13:08.473Z,13.58
2022-10-29T04:14:08.472Z,13.60
2022-10-29T04:15:08.441Z,13.54
2022-10-29T04:16:08.446Z,13.54
2022-10-29T04:17:08.411Z,13.49
2022-10-29T04:18:08.445Z,13.46
2022-10-29T04:19:08.408Z,13.45
2022-10-29T04:20:19.013Z,13.43
2022-10-29T04:24:12.076Z,13.43
2022-10-29T04:28:10.298Z,13.27
2022-10-29T04:28:43.524Z,13.27
2022-10-29T04:29:08.255Z,13.26
2022-10-29T04:30:08.294Z,13.40
2022-10-29T04:31:08.229Z,13.43
2022-10-29T04:32:08.229Z,13.40
2022-10-29T04:33:08.204Z,13.40
2022-10-29T04:34:08.246Z,13.39
2022-10-29T04:35:08.190Z,13.32
2022-10-29T04:36:08.177Z,13.32
2022-10-29T04:37:08.149Z,13.29
2022-10-29T04:38:08.147Z,13.29
2022-10-29T04:39:08.123Z,13.24
2022-10-29T04:40:08.146Z,13.21
2022-10-29T04:41:08.095Z,13.16
2022-10-29T04:42:08.096Z,13.13
2022-10-29T04:43:08.065Z,13.08
2022-10-29T04:44:08.071Z,13.06
2022-10-29T04:45:08.093Z,13.06
2022-10-29T04:46:08.052Z,13.09
2022-10-29T04:47:08.014Z,13.14
2022-10-29T04:48:08.012Z,13.17
2022-10-29T04:49:08.029Z,13.19
2022-10-29T04:50:07.992Z,13.19
2022-10-29T04:51:08.002Z,13.24
2022-10-29T04:52:07.965Z,13.24
2022-10-29T04:53:07.939Z,13.23
2022-10-29T04:54:07.938Z,13.24
2022-10-29T04:55:07.910Z,13.27
2022-10-29T04:56:07.947Z,13.30
2022-10-29T04:57:07.900Z,13.30
2022-10-29T04:58:07.884Z,13.35
2022-10-29T04:59:07.861Z,13.40
2022-10-29T05:00:07.856Z,13.45
2022-10-29T05:01:07.987Z,13.46
2022-10-29T05:02:07.859Z,13.46
2022-10-29T05:03:07.803Z,13.49
2022-10-29T05:04:07.802Z,13.46
2022-10-29T05:05:07.781Z,13.45
2022-10-29T05:06:07.779Z,13.45
2022-10-29T05:07:07.807Z,13.45
2022-10-29T05:08:07.758Z,13.42
2022-10-29T05:09:07.737Z,13.40
2022-10-29T05:10:07.727Z,13.39
2022-10-29T05:11:07.695Z,13.38
2022-10-29T05:12:07.771Z,13.36
2022-10-29T05:13:07.699Z,13.38
2022-10-29T05:14:07.680Z,13.39
2022-10-29T05:15:07.644Z,13.42
2022-10-29T05:16:07.641Z,13.46
2022-10-29T05:18:07.662Z,13.63
2022-10-29T05:19:07.599Z,13.65
2022-10-29T05:20:07.598Z,13.71
2022-10-29T05:21:07.564Z,13.88
2022-10-29T05:22:07.559Z,14.01
2022-10-29T05:23:07.538Z,14.11
2022-10-29T05:24:07.561Z,14.21
2022-10-29T05:25:07.507Z,14.27
2022-10-29T05:26:07.508Z,14.37
2022-10-29T05:27:07.477Z,14.49
2022-10-29T05:28:07.479Z,14.58
2022-10-29T05:29:07.490Z,14.61
2022-10-29T05:30:07.469Z,14.64
2022-10-29T05:31:07.440Z,14.66
2022-10-29T05:32:07.441Z,14.70
2022-10-29T05:33:07.403Z,14.77
2022-10-29T05:34:07.411Z,14.79
2022-10-29T05:35:07.412Z,14.77
2022-10-29T05:36:07.375Z,14.78
2022-10-29T05:37:07.347Z,14.78
2022-10-29T05:38:07.349Z,14.77
2022-10-29T05:39:07.320Z,14.78
2022-10-29T05:40:07.361Z,14.82
2022-10-29T05:41:07.296Z,14.86
2022-10-29T05:42:07.309Z,14.86
2022-10-29T05:43:07.274Z,14.87
2022-10-29T05:44:07.268Z,14.85
2022-10-29T05:45:07.294Z,14.85
2022-10-29T05:46:07.244Z,14.79
2022-10-29T05:47:07.161Z,14.79
2022-10-29T05:48:07.229Z,14.82
2022-10-29T05:49:07.163Z,14.82
2022-10-29T05:50:07.155Z,14.82
2022-10-29T05:51:07.148Z,14.82
2022-10-29T05:52:07.108Z,14.79
2022-10-29T05:53:07.075Z,14.74
2022-10-29T05:54:07.094Z,14.69
2022-10-29T05:55:07.053Z,14.63
2022-10-29T05:56:07.096Z,14.58
2022-10-29T05:57:07.044Z,14.53
2022-10-29T05:58:07.038Z,14.52
2022-10-29T05:59:07.005Z,14.46
2022-10-29T06:00:07.020Z,14.40
2022-10-29T06:01:06.986Z,14.37
2022-10-29T06:02:07.171Z,14.36
2022-10-29T06:03:07.085Z,14.33
2022-10-29T06:04:06.963Z,14.31
2022-10-29T06:05:06.921Z,14.30
2022-10-29T06:06:06.988Z,14.30
2022-10-29T06:07:06.931Z,14.30
2022-10-29T06:08:06.897Z,14.31
2022-10-29T06:09:06.866Z,14.34
2022-10-29T06:10:06.868Z,14.37
2022-10-29T06:11:06.854Z,14.40
2022-10-29T06:12:06.969Z,14.46
2022-10-29T06:13:06.846Z,14.55
2022-10-29T06:14:06.819Z,14.66
2022-10-29T06:15:06.787Z,14.71
2022-10-29T06:16:06.785Z,14.77
2022-10-29T06:17:06.768Z,14.82
2022-10-29T06:18:06.798Z,14.86
2022-10-29T06:19:06.737Z,14.90
2022-10-29T06:20:06.742Z,14.93
2022-10-29T06:21:06.707Z,14.93
2022-10-29T06:22:06.707Z,14.97
2022-10-29T06:23:06.679Z,15.01
2022-10-29T06:24:06.707Z,15.07
2022-10-29T06:25:06.650Z,15.10
2022-10-29T06:26:06.651Z,15.10
2022-10-29T06:27:06.628Z,15.07
2022-10-29T06:28:06.648Z,15.04
2022-10-29T06:29:06.651Z,15.04
2022-10-29T06:30:06.610Z,15.07
2022-10-29T06:31:06.576Z,15.08
2022-10-29T06:32:06.570Z,15.05
2022-10-29T06:33:06.585Z,15.07
2022-10-29T06:34:06.552Z,15.12
2022-10-29T06:35:06.555Z,15.19
2022-10-29T06:36:06.519Z,15.25
2022-10-29T06:37:06.500Z,15.25
2022-10-29T06:38:11.977Z,15.22
2022-10-29T06:39:06.480Z,15.22
2022-10-29T06:40:06.514Z,15.25
2022-10-29T06:41:06.447Z,15.26
2022-10-29T06:42:06.446Z,15.25
2022-10-29T06:43:06.412Z,15.29
2022-10-29T06:44:06.420Z,15.33
2022-10-29T06:45:06.386Z,15.40
2022-10-29T06:46:06.424Z,15.43
2022-10-29T06:47:06.359Z,15.44
2022-10-29T06:48:06.361Z,15.47
2022-10-29T06:49:06.356Z,15.50
2022-10-29T06:50:06.388Z,15.51
2022-10-29T06:51:06.345Z,15.56
2022-10-29T06:52:06.314Z,15.62
2022-10-29T06:53:06.339Z,15.68
2022-10-29T06:54:06.299Z,15.76
2022-10-29T06:55:06.248Z,15.78
2022-10-29T06:56:06.299Z,15.78
2022-10-29T06:57:06.264Z,15.81
2022-10-29T06:58:06.232Z,15.78
2022-10-29T06:59:06.204Z,15.78
2022-10-29T07:00:08.568Z,15.80
2022-10-29T07:01:06.179Z,15.83
2022-10-29T07:02:06.270Z,15.85
2022-10-29T07:03:06.171Z,15.87
2022-10-29T07:04:06.138Z,15.88
2022-10-29T07:05:06.134Z,15.91
2022-10-29T07:06:06.106Z,15.90
2022-10-29T07:07:06.104Z,15.96
2022-10-29T07:08:06.111Z,15.98
2022-10-29T07:09:06.087Z,15.98
2022-10-29T07:10:06.058Z,16.03
2022-10-29T07:11:06.051Z,16.09
2022-10-29T07:12:12.528Z,16.14
2022-10-29T07:13:06.067Z,16.16
2022-10-29T07:14:06.072Z,16.22
2022-10-29T07:15:06.021Z,16.21
2022-10-29T07:16:05.984Z,16.25
2022-10-29T07:17:05.998Z,16.29
2022-10-29T07:18:06.533Z,16.33
2022-10-29T07:19:05.998Z,16.36
2022-10-29T07:20:05.925Z,16.42
2022-10-29T07:21:05.933Z,16.44
2022-10-29T07:22:05.895Z,16.49
2022-10-29T07:23:05.911Z,16.57
2022-10-29T07:24:05.906Z,16.59
2022-10-29T07:25:05.865Z,16.61
2022-10-29T07:26:05.835Z,16.62
2022-10-29T07:27:05.960Z,16.64
2022-10-29T07:28:05.899Z,16.64
2022-10-29T07:29:05.840Z,16.69
2022-10-29T07:30:05.816Z,16.72
2022-10-29T07:31:05.812Z,16.76
2022-10-29T07:32:05.766Z,16.79
2022-10-29T07:33:05.799Z,16.83
2022-10-29T07:34:05.738Z,16.91
2022-10-29T07:35:05.812Z,16.94
2022-10-29T07:36:05.752Z,16.98
2022-10-29T07:37:05.736Z,17.01
2022-10-29T07:38:09.162Z,16.99
2022-10-29T07:39:05.687Z,17.02
2022-10-29T07:40:05.672Z,16.99
2022-10-29T07:41:05.688Z,17.01
2022-10-29T07:42:05.662Z,17.01
2022-10-29T07:43:05.644Z,17.02
2022-10-29T07:44:05.611Z,17.02
2022-10-29T07:45:05.617Z,17.02
2022-10-29T07:46:05.621Z,17.02
2022-10-29T07:47:05.579Z,17.04
2022-10-29T07:48:05.551Z,16.99
2022-10-29T07:49:05.556Z,16.95
2022-10-29T07:50:05.542Z,16.95
2022-10-29T07:51:05.521Z,17.02
2022-10-29T07:52:05.539Z,17.07
2022-10-29T07:53:05.555Z,17.12
2022-10-29T07:54:05.477Z,17.09
2022-10-29T07:55:05.467Z,17.10
2022-10-29T07:56:05.442Z,17.19
2022-10-29T07:57:05.485Z,17.27
2022-10-29T07:58:05.420Z,17.30
2022-10-29T07:59:05.422Z,17.32
2022-10-29T08:00:05.391Z,17.38
2022-10-29T08:01:05.444Z,17.38
2022-10-29T08:02:05.422Z,17.45
2022-10-29T08:03:05.396Z,17.45
2022-10-29T08:04:05.344Z,17.45
2022-10-29T08:05:05.334Z,17.47
2022-10-29T08:06:05.332Z,17.50
2022-10-29T08:07:05.311Z,17.50
2022-10-29T08:08:05.354Z,17.53
2022-10-29T08:09:05.287Z,17.50
2022-10-29T08:10:05.277Z,17.52
2022-10-29T08:11:05.326Z,17.53
2022-10-29T08:12:05.241Z,17.54
2022-10-29T08:13:05.241Z,17.56
2022-10-29T08:14:05.254Z,17.59
2022-10-29T08:15:05.202Z,17.62
2022-10-29T08:16:05.223Z,17.72
2022-10-29T08:17:05.170Z,17.75
2022-10-29T08:18:05.152Z,17.76
2022-10-29T08:19:05.185Z,17.81
2022-10-29T08:20:05.137Z,17.86
2022-10-29T08:21:05.154Z,17.88
2022-10-29T08:22:05.128Z,17.88
2022-10-29T08:23:05.091Z,17.88
2022-10-29T08:24:05.066Z,17.88
2022-10-29T08:25:05.165Z,17.90
2022-10-29T08:26:05.047Z,17.88
2022-10-29T08:27:05.042Z,17.86
2022-10-29T08:28:05.084Z,17.88
2022-10-29T08:29:05.012Z,17.86
2022-10-29T08:30:05.026Z,17.90
2022-10-29T08:31:05.023Z,17.88
2022-10-29T08:32:04.992Z,17.90
2022-10-29T08:33:04.966Z,17.88
2022-10-29T08:34:08.557Z,17.93
2022-10-29T08:35:04.992Z,17.91
2022-10-29T08:36:04.935Z,17.99
2022-10-29T08:37:04.910Z,18.06
2022-10-29T08:38:04.892Z,18.11
2022-10-29T08:39:04.889Z,18.13
2022-10-29T08:40:04.853Z,18.18
2022-10-29T08:41:04.885Z,18.21
2022-10-29T08:42:04.826Z,18.23
2022-10-29T08:43:04.826Z,18.27
2022-10-29T08:44:04.837Z,18.24
2022-10-29T08:45:04.807Z,18.28
2022-10-29T08:46:04.783Z,18.33
2022-10-29T08:47:07.716Z,18.34
2022-10-29T08:48:04.767Z,18.34
2022-10-29T08:49:04.751Z,18.34
2022-10-29T08:50:04.720Z,18.31
2022-10-29T08:51:04.724Z,18.31
2022-10-29T08:52:04.729Z,18.30
2022-10-29T08:53:22.195Z,18.31
2022-10-29T08:54:25.527Z,18.33
2022-10-29T08:55:04.694Z,18.38
2022-10-29T08:56:04.641Z,18.36
2022-10-29T08:57:04.643Z,18.39
2022-10-29T08:58:04.812Z,18.41
2022-10-29T08:59:04.617Z,18.45
2022-10-29T09:00:04.722Z,18.48
2022-10-29T09:01:04.637Z,18.48
2022-10-29T09:02:04.639Z,18.51
2022-10-29T09:03:04.601Z,18.54
2022-10-29T09:04:04.549Z,18.52
2022-10-29T09:05:04.536Z,18.60
2022-10-29T09:06:04.519Z,18.68
2022-10-29T09:07:04.509Z,18.68
2022-10-29T09:08:04.483Z,18.67
2022-10-29T09:09:04.556Z,18.70
2022-10-29T09:10:04.463Z,18.70
2022-10-29T09:11:04.514Z,18.76
2022-10-29T09:12:04.427Z,18.81
2022-10-29T09:13:04.445Z,18.89
2022-10-29T09:14:04.461Z,19.04
2022-10-29T09:15:04.428Z,19.15
2022-10-29T09:16:04.388Z,19.13
2022-10-29T09:17:04.392Z,19.27
2022-10-29T09:18:04.350Z,19.34
2022-10-29T09:19:04.394Z,19.42
2022-10-29T09:20:04.349Z,19.45
2022-10-29T09:21:04.334Z,19.52
2022-10-29T09:22:04.330Z,19.56
2022-10-29T09:23:04.321Z,19.45
2022-10-29T09:24:04.275Z,19.32
2022-10-29T09:25:04.329Z,19.23
2022-10-29T09:26:04.250Z,19.31
2022-10-29T09:27:08.125Z,19.37
2022-10-29T09:28:04.243Z,19.45
2022-10-29T09:29:04.220Z,19.53
2022-10-29T09:30:04.197Z,19.62
2022-10-29T09:31:04.257Z,19.63
2022-10-29T09:32:04.169Z,19.71
2022-10-29T09:33:04.166Z,19.72
2022-10-29T09:34:04.152Z,19.78
2022-10-29T09:35:04.165Z,19.81
2022-10-29T09:36:04.150Z,19.77
2022-10-29T09:37:04.138Z,19.81
2022-10-29T09:38:04.087Z,19.90
2022-10-29T09:39:04.086Z,19.92
2022-10-29T09:40:04.061Z,19.90
2022-10-29T09:41:04.151Z,19.87
2022-10-29T09:42:04.080Z,19.84
2022-10-29T09:43:04.033Z,19.78
2022-10-29T09:44:04.016Z,19.77
2022-10-29T09:45:04.009Z,19.87
2022-10-29T09:46:04.023Z,19.84
2022-10-29T09:47:08.681Z,19.87
2022-10-29T09:48:03.955Z,19.87
2022-10-29T09:49:04.007Z,19.99
2022-10-29T09:50:08.336Z,20.09
2022-10-29T09:51:03.935Z,20.08
2022-10-29T09:52:03.935Z,20.09
2022-10-29T09:53:03.898Z,20.23
2022-10-29T09:54:03.896Z,20.26
2022-10-29T09:55:03.876Z,20.34
2022-10-29T09:56:03.870Z,20.37
2022-10-29T09:57:03.871Z,20.34
2022-10-29T09:58:03.865Z,20.36
2022-10-29T09:59:03.820Z,20.36
2022-10-29T10:00:03.795Z,20.32
2022-10-29T10:01:03.802Z,20.30
2022-10-29T10:02:03.911Z,20.34
2022-10-29T10:03:03.853Z,20.49
2022-10-29T10:04:03.894Z,20.61
2022-10-29T10:05:03.748Z,20.63
2022-10-29T10:06:03.789Z,20.67
2022-10-29T10:07:03.746Z,20.79
2022-10-29T10:08:03.710Z,20.90
2022-10-29T10:09:03.698Z,20.98
2022-10-29T10:10:03.697Z,21.03
2022-10-29T10:11:03.682Z,21.08
2022-10-29T10:12:03.662Z,21.18
2022-10-29T10:13:03.637Z,21.20
2022-10-29T10:14:03.746Z,21.26
2022-10-29T10:15:03.655Z,21.25
2022-10-29T10:16:03.646Z,21.22
2022-10-29T10:17:03.639Z,21.19
2022-10-29T10:18:03.571Z,21.20
2022-10-29T10:19:03.601Z,21.11
2022-10-29T10:20:03.536Z,21.07
2022-10-29T10:21:03.533Z,21.08
2022-10-29T10:22:03.556Z,21.03
2022-10-29T10:23:03.510Z,20.93
2022-10-29T10:24:03.476Z,20.92
2022-10-29T10:25:03.508Z,20.95
2022-10-29T10:26:04.308Z,20.86
2022-10-29T10:27:03.468Z,20.86
2022-10-29T10:28:03.487Z,20.92
2022-10-29T10:29:03.444Z,20.92
2022-10-29T10:30:03.471Z,20.88
2022-10-29T10:31:03.415Z,20.82
2022-10-29T10:32:03.370Z,20.74
2022-10-29T10:33:03.399Z,20.73
2022-10-29T10:34:03.392Z,20.79
2022-10-29T10:35:03.342Z,20.86
2022-10-29T10:36:03.392Z,20.88
2022-10-29T10:37:03.323Z,20.86
2022-10-29T10:38:03.288Z,20.90
2022-10-29T10:39:03.302Z,20.93
2022-10-29T10:40:03.271Z,20.97
2022-10-29T10:41:03.313Z,20.97
2022-10-29T10:42:03.251Z,21.01
2022-10-29T10:43:06.824Z,21.07
2022-10-29T10:44:03.253Z,21.10
2022-10-29T10:45:03.289Z,21.08
2022-10-29T10:46:03.198Z,21.07
2022-10-29T10:47:03.222Z,21.13
2022-10-29T10:48:03.365Z,21.11
2022-10-29T10:49:03.163Z,21.08
2022-10-29T10:50:03.129Z,21.05
2022-10-29T10:51:03.151Z,21.05
2022-10-29T10:52:03.136Z,21.07
2022-10-29T10:53:03.198Z,21.10
2022-10-29T10:54:03.175Z,21.13
2022-10-29T10:55:03.160Z,21.18
2022-10-29T10:56:03.079Z,21.14
2022-10-29T10:57:03.063Z,21.20
2022-10-29T10:58:03.087Z,21.23
2022-10-29T10:59:03.030Z,21.25
2022-10-29T11:00:03.000Z,21.20
2022-10-29T11:01:03.091Z,21.22
2022-10-29T11:02:03.152Z,21.22
2022-10-29T11:03:03.004Z,21.23
2022-10-29T11:04:02.947Z,21.26
2022-10-29T11:05:05.342Z,21.23
2022-10-29T11:06:02.920Z,21.20
2022-10-29T11:07:02.927Z,21.16
2022-10-29T11:08:02.911Z,21.13
2022-10-29T11:09:02.951Z,21.16
2022-10-29T11:10:02.869Z,21.20
2022-10-29T11:11:02.864Z,21.23
2022-10-29T11:12:02.976Z,21.25
2022-10-29T11:13:02.868Z,21.25
2022-10-29T11:14:02.860Z,21.28
2022-10-29T11:15:02.839Z,21.26
2022-10-29T11:16:02.788Z,21.30
2022-10-29T11:17:02.818Z,21.37
2022-10-29T11:18:03.082Z,21.44
2022-10-29T11:19:02.791Z,21.48
2022-10-29T11:20:02.791Z,21.55
2022-10-29T11:21:02.729Z,21.62
2022-10-29T11:22:02.738Z,21.63
2022-10-29T11:23:02.702Z,21.74
2022-10-29T11:24:02.695Z,21.78
2022-10-29T11:25:02.698Z,21.84
2022-10-29T11:26:02.773Z,21.91
2022-10-29T11:27:02.800Z,21.80
2022-10-29T11:28:02.743Z,21.84
2022-10-29T11:29:02.709Z,21.85
2022-10-29T11:30:02.687Z,21.91
2022-10-29T11:31:02.616Z,22.00
2022-10-29T11:32:02.598Z,22.00
2022-10-29T11:33:02.655Z,22.03
2022-10-29T11:34:02.573Z,22.00
2022-10-29T11:35:02.543Z,22.06
2022-10-29T11:36:02.597Z,22.13
2022-10-29T11:37:02.527Z,22.13
2022-10-29T11:38:02.510Z,22.13
2022-10-29T11:39:02.480Z,22.18
2022-10-29T11:40:02.481Z,22.15
2022-10-29T11:41:02.462Z,22.13
2022-10-29T11:42:02.478Z,22.16
2022-10-29T11:43:07.060Z,22.16
2022-10-29T11:44:02.503Z,22.19
2022-10-29T11:45:02.401Z,22.25
2022-10-29T11:46:02.440Z,22.33
2022-10-29T11:47:02.404Z,22.23
2022-10-29T11:48:02.443Z,22.19
2022-10-29T11:49:02.373Z,22.22
2022-10-29T11:50:02.367Z,22.19
2022-10-29T11:51:02.361Z,22.19
2022-10-29T11:52:02.339Z,22.23
2022-10-29T11:53:02.347Z,22.23
2022-10-29T11:54:02.319Z,22.30
2022-10-29T11:55:02.273Z,22.30
2022-10-29T11:56:02.278Z,22.28
2022-10-29T11:57:02.268Z,22.33
2022-10-29T11:58:02.318Z,22.38
2022-10-29T11:59:02.217Z,22.28
2022-10-29T12:00:02.225Z,22.31
2022-10-29T12:01:02.197Z,22.36
2022-10-29T12:02:02.321Z,22.34
2022-10-29T12:03:02.164Z,22.37
2022-10-29T12:04:02.225Z,22.44
2022-10-29T12:05:02.138Z,22.49
2022-10-29T12:06:02.148Z,22.53
2022-10-29T12:07:02.118Z,22.58
2022-10-29T12:08:02.150Z,22.62
2022-10-29T12:09:02.150Z,22.67
2022-10-29T12:10:02.157Z,22.70
2022-10-29T12:11:02.073Z,22.74
2022-10-29T12:12:02.071Z,22.73
2022-10-29T12:13:02.091Z,22.73
2022-10-29T12:14:02.118Z,22.77
2022-10-29T12:15:02.022Z,22.85
2022-10-29T12:16:02.007Z,22.93
2022-10-29T12:17:02.091Z,22.96
2022-10-29T12:18:02.125Z,22.93
2022-10-29T12:19:02.032Z,22.95
2022-10-29T12:20:02.069Z,22.85
2022-10-29T12:21:01.976Z,22.73
2022-10-29T12:22:01.942Z,22.73
2022-10-29T12:23:04.983Z,22.68
2022-10-29T12:24:01.921Z,22.66
2022-10-29T12:25:01.914Z,22.68
2022-10-29T12:26:01.895Z,22.67
2022-10-29T12:27:01.854Z,22.61
2022-10-29T12:28:01.881Z,22.52
2022-10-29T12:29:01.825Z,22.56
2022-10-29T12:30:01.846Z,22.52
2022-10-29T12:31:01.830Z,22.48
2022-10-29T12:32:01.810Z,22.46
2022-10-29T12:33:01.807Z,22.44
2022-10-29T12:34:01.772Z,22.52
2022-10-29T12:35:01.747Z,22.53
2022-10-29T12:37:01.730Z,22.61
2022-10-29T12:38:01.761Z,22.61
2022-10-29T12:39:01.706Z,22.58
2022-10-29T12:40:01.705Z,22.51
2022-10-29T12:41:01.670Z,22.44
2022-10-29T12:42:01.713Z,22.49
2022-10-29T12:43:01.711Z,22.46
2022-10-29T12:44:01.642Z,22.46
2022-10-29T12:45:01.626Z,22.37
2022-10-29T12:47:01.647Z,22.41
2022-10-29T12:48:01.622Z,22.40
2022-10-29T12:49:01.576Z,22.43
2022-10-29T12:50:01.574Z,22.46
2022-10-29T12:51:01.545Z,22.46
2022-10-29T12:52:01.551Z,22.48
2022-10-29T12:53:01.546Z,22.56
2022-10-29T12:54:01.545Z,22.53
2022-10-29T12:55:01.500Z,22.55
2022-10-29T12:56:01.489Z,22.52
2022-10-29T12:57:01.460Z,22.40
2022-10-29T12:58:01.531Z,22.43
2022-10-29T12:59:01.448Z,22.44
2022-10-29T13:00:01.438Z,22.46
2022-10-29T13:01:01.466Z,22.41